Time;durP1;ratioP1;P1;durP2;ratioP2;P2;SDS_P1;SDS_P2;PMS_P1;PMS_P2;Temp;Humidity;BMP_temperature;BMP_pressure;BME280_temperature;BME280_humidity;BME280_pressure;Samples;Min_cycle;Max_cycle;Signal;HPM_P1;HPM_P2
2022/04/06 00:00:42;;;;;;;18.05;4.32;;;10.50;99.90;;;;;;5077004;28;20090;-65
2022/04/06 00:03:08;;;;;;;12.57;4.80;;;10.50;99.90;;;;;;5059748;28;20060;-66
2022/04/06 00:05:35;;;;;;;17.40;3.28;;;10.40;99.90;;;;;;5076186;28;20084;-67
2022/04/06 00:08:01;;;;;;;16.95;4.28;;;10.50;99.90;;;;;;5076218;28;20037;-65
2022/04/06 00:10:28;;;;;;;16.85;4.03;;;10.50;99.90;;;;;;5076182;28;20029;-65
2022/04/06 00:12:54;;;;;;;16.02;3.75;;;10.40;99.90;;;;;;5076072;28;20105;-65
2022/04/06 00:15:20;;;;;;;15.18;4.05;;;10.30;99.90;;;;;;5076052;28;20128;-68
2022/04/06 00:17:46;;;;;;;12.20;3.55;;;10.30;99.90;;;;;;5059337;28;20032;-67
2022/04/06 00:20:14;;;;;;;16.30;3.97;;;10.30;99.90;;;;;;5076943;28;20039;-67
2022/04/06 00:22:40;;;;;;;14.48;3.55;;;10.30;99.90;;;;;;5076715;28;20107;-66
2022/04/06 00:25:07;;;;;;;13.85;3.72;;;10.30;99.90;;;;;;5076716;28;20032;-66
2022/04/06 00:27:33;;;;;;;12.98;4.07;;;10.30;99.90;;;;;;5077024;28;20032;-67
2022/04/06 00:29:59;;;;;;;11.90;3.80;;;10.40;99.90;;;;;;5080112;28;20346;-67
2022/04/06 00:32:25;;;;;;;15.13;3.83;;;10.40;99.90;;;;;;5063343;28;20028;-66
2022/04/06 00:37:35;;;;;;;18.30;4.22;;;10.50;99.90;;;;;;5080203;28;20300;-66
2022/04/06 00:40:02;;;;;;;13.30;3.50;;;10.50;99.90;;;;;;5063131;28;20055;-67
2022/04/06 00:42:27;;;;;;;13.48;3.60;;;10.40;99.90;;;;;;5079935;28;20033;-72
2022/04/06 00:44:53;;;;;;;12.27;3.67;;;10.40;99.90;;;;;;5080577;28;20035;-66
2022/04/06 00:47:19;;;;;;;13.02;3.58;;;10.30;99.90;;;;;;5079860;28;20040;-67
2022/04/06 00:49:45;;;;;;;12.63;3.55;;;10.30;99.90;;;;;;5080470;28;20296;-67
2022/04/06 00:52:12;;;;;;;11.45;3.25;;;10.30;99.90;;;;;;5079617;28;20403;-67
2022/04/06 00:54:39;;;;;;;15.40;4.10;;;10.30;99.90;;;;;;5080622;28;20032;-67
2022/04/06 00:57:04;;;;;;;13.00;3.08;;;10.20;99.90;;;;;;5079662;28;20044;-67
2022/04/06 00:59:33;;;;;;;19.80;4.38;;;10.20;99.90;;;;;;5080399;28;20036;-67
2022/04/06 01:01:59;;;;;;;14.63;3.45;;;10.20;99.90;;;;;;5079464;28;20039;-66
2022/04/06 01:04:26;;;;;;;14.40;3.70;;;10.20;99.90;;;;;;5080505;28;20020;-66
2022/04/06 01:06:53;;;;;;;11.82;2.92;;;10.20;99.90;;;;;;5079475;28;20048;-70
2022/04/06 01:09:21;;;;;;;15.15;3.35;;;10.30;99.90;;;;;;5079388;28;20150;-66
2022/04/06 01:11:50;;;;;;;12.77;3.00;;;10.20;99.90;;;;;;5080355;28;20304;-67
2022/04/06 01:14:18;;;;;;;14.20;4.13;;;10.30;99.90;;;;;;5079163;28;20059;-67
2022/04/06 01:16:58;;;;;;;11.80;2.80;;;10.20;99.90;;;;;;5079308;28;20182;-67
2022/04/06 01:19:39;;;;;;;14.35;3.55;;;10.20;99.90;;;;;;5079700;28;20420;-67
2022/04/06 01:22:12;;;;;;;13.48;3.35;;;10.20;99.90;;;;;;5079902;28;20266;-67
2022/04/06 01:24:39;;;;;;;14.23;2.97;;;10.20;99.90;;;;;;5046930;28;20107;-66
2022/04/06 01:27:06;;;;;;;10.82;2.83;;;10.20;99.90;;;;;;5079764;28;20081;-67
2022/04/06 01:29:32;;;;;;;14.35;3.85;;;10.20;99.90;;;;;;5079796;28;20028;-66
2022/04/06 01:32:32;;;;;;;7.43;2.40;;;10.30;99.90;;;;;;5079648;28;20024;-66
2022/04/06 01:34:58;;;;;;;10.20;2.30;;;10.40;99.90;;;;;;5079533;28;20411;-66
2022/04/06 01:37:25;;;;;;;9.63;2.40;;;10.40;99.90;;;;;;5079714;28;20044;-65
2022/04/06 01:39:51;;;;;;;9.55;2.30;;;10.50;99.90;;;;;;5078586;28;20323;-65
2022/04/06 01:42:18;;;;;;;8.95;2.00;;;10.50;99.90;;;;;;5079464;28;20040;-65
2022/04/06 01:44:46;;;;;;;12.13;2.35;;;10.50;99.90;;;;;;5061973;28;20066;-64
2022/04/06 01:47:15;;;;;;;5.47;1.70;;;10.60;99.90;;;;;;5078766;28;20277;-65
2022/04/06 01:52:42;;;;;;;9.40;2.05;;;10.60;99.90;;;;;;5098044;28;20040;-66
2022/04/06 01:55:11;;;;;;;9.20;1.92;;;10.50;99.90;;;;;;5083305;28;20040;-65
2022/04/06 01:57:37;;;;;;;7.95;1.92;;;10.50;99.90;;;;;;5078429;28;20028;-67
2022/04/06 02:00:27;;;;;;;5.47;1.60;;;10.50;99.90;;;;;;5078448;28;20308;-69
2022/04/06 02:02:53;;;;;;;7.60;1.60;;;10.40;99.90;;;;;;5079047;28;20377;-67
2022/04/06 02:05:21;;;;;;;11.30;1.80;;;10.40;99.90;;;;;;5061705;28;20033;-67
2022/04/06 02:07:47;;;;;;;8.05;1.50;;;10.50;99.90;;;;;;5078326;28;20067;-66
2022/04/06 02:10:14;;;;;;;10.02;2.15;;;10.40;99.90;;;;;;5079172;28;20400;-67
2022/04/06 02:12:41;;;;;;;6.32;1.60;;;10.40;99.90;;;;;;5061436;28;20062;-67
2022/04/06 02:15:10;;;;;;;10.40;2.25;;;10.40;99.90;;;;;;5079075;28;20404;-67
2022/04/06 02:17:37;;;;;;;11.85;2.17;;;10.30;99.90;;;;;;5077293;28;20040;-66
2022/04/06 02:20:03;;;;;;;6.47;1.95;;;10.30;99.90;;;;;;5078194;28;20017;-67
2022/04/06 02:22:29;;;;;;;5.35;1.67;;;10.40;99.90;;;;;;5078074;28;20111;-67
2022/04/06 02:24:55;;;;;;;9.45;1.77;;;10.50;99.90;;;;;;5078691;28;20484;-67
2022/04/06 02:27:21;;;;;;;8.63;1.85;;;10.40;99.90;;;;;;5078720;28;20028;-67
2022/04/06 02:29:48;;;;;;;9.38;2.03;;;10.40;99.90;;;;;;5078639;28;20028;-66
2022/04/06 02:32:14;;;;;;;7.38;1.92;;;10.40;99.90;;;;;;5077631;28;20392;-66
2022/04/06 02:34:40;;;;;;;9.82;2.05;;;10.40;99.90;;;;;;5078498;28;20028;-65
2022/04/06 02:37:11;;;;;;;10.50;2.13;;;10.40;99.90;;;;;;5078364;28;20097;-67
2022/04/06 02:39:37;;;;;;;7.65;1.80;;;10.30;99.90;;;;;;5078010;28;20060;-69
2022/04/06 02:42:03;;;;;;;11.05;2.75;;;10.30;99.90;;;;;;5078396;28;20292;-67
2022/04/06 02:44:29;;;;;;;9.93;2.17;;;10.20;99.90;;;;;;5060818;28;20025;-68
2022/04/06 02:46:55;;;;;;;9.98;1.80;;;10.30;99.90;;;;;;5078299;28;20041;-67
2022/04/06 02:49:21;;;;;;;11.20;2.60;;;10.30;99.90;;;;;;5077904;28;20033;-63
2022/04/06 02:51:46;;;;;;;12.88;2.53;;;10.30;99.90;;;;;;5060108;28;20040;-65
2022/04/06 02:54:13;;;;;;;11.95;2.65;;;10.40;99.90;;;;;;5078033;28;20082;-66
2022/04/06 02:56:39;;;;;;;11.15;2.63;;;10.30;99.90;;;;;;5078059;28;20292;-66
2022/04/06 02:59:05;;;;;;;12.40;2.60;;;10.20;99.90;;;;;;5077431;28;20051;-67
2022/04/06 03:01:31;;;;;;;11.07;2.65;;;10.20;99.90;;;;;;5077277;28;20040;-67
2022/04/06 03:03:57;;;;;;;15.93;2.97;;;10.10;99.90;;;;;;5078355;28;20070;-68
2022/04/06 03:06:23;;;;;;;12.85;2.72;;;10.10;99.90;;;;;;5077054;28;20037;-67
2022/04/06 03:08:49;;;;;;;18.10;3.65;;;10.00;99.90;;;;;;5077745;28;20041;-66
2022/04/06 03:11:14;;;;;;;19.05;3.92;;;10.10;99.90;;;;;;5077737;28;20396;-68
2022/04/06 03:13:40;;;;;;;14.32;3.28;;;10.10;99.90;;;;;;5060356;28;20103;-67
2022/04/06 03:16:07;;;;;;;15.50;3.92;;;10.00;99.90;;;;;;5077653;28;20028;-66
2022/04/06 03:18:33;;;;;;;15.90;3.28;;;10.00;99.90;;;;;;5078278;28;20036;-67
2022/04/06 03:20:59;;;;;;;13.27;3.47;;;10.00;99.90;;;;;;5076662;28;20028;-66
2022/04/06 03:23:25;;;;;;;19.65;4.53;;;10.00;99.90;;;;;;5076608;28;20052;-66
2022/04/06 03:25:50;;;;;;;19.88;4.63;;;10.00;99.90;;;;;;5043454;28;20016;-68
2022/04/06 03:28:16;;;;;;;14.68;3.85;;;10.00;99.90;;;;;;5059956;28;20047;-66
2022/04/06 03:30:42;;;;;;;13.65;3.47;;;10.10;99.90;;;;;;5076560;28;20056;-66
2022/04/06 03:33:09;;;;;;;16.23;3.75;;;10.00;99.90;;;;;;5077245;28;20047;-67
2022/04/06 03:35:36;;;;;;;19.35;4.03;;;10.00;99.90;;;;;;5077299;28;20349;-68
2022/04/06 03:38:02;;;;;;;18.88;4.05;;;10.00;99.90;;;;;;5077303;28;20060;-68
2022/04/06 03:40:31;;;;;;;19.70;5.20;;;10.00;99.90;;;;;;5076379;28;20060;-68
2022/04/06 03:42:57;;;;;;;19.05;3.80;;;10.00;99.90;;;;;;5060172;28;20407;-66
2022/04/06 03:45:23;;;;;;;17.30;4.05;;;10.10;99.90;;;;;;5077154;28;20064;-67
2022/04/06 03:47:49;;;;;;;20.60;4.10;;;10.20;99.90;;;;;;5077173;28;20025;-66
2022/04/06 03:50:15;;;;;;;11.52;3.55;;;10.10;99.90;;;;;;5076452;28;20024;-65
2022/04/06 03:52:41;;;;;;;17.25;3.33;;;10.00;99.90;;;;;;5077001;28;20072;-66
2022/04/06 03:55:09;;;;;;;14.25;3.65;;;10.10;99.90;;;;;;5076219;28;20419;-67
2022/04/06 03:57:35;;;;;;;15.50;3.70;;;10.00;99.90;;;;;;5076340;28;20107;-69
2022/04/06 04:00:04;;;;;;;10.52;2.97;;;10.00;99.90;;;;;;5059436;28;20060;-67
2022/04/06 04:02:31;;;;;;;15.93;2.92;;;10.10;99.90;;;;;;5058904;28;20029;-67
2022/04/06 04:04:57;;;;;;;9.73;2.28;;;10.10;99.90;;;;;;5076783;28;20108;-68
2022/04/06 04:07:23;;;;;;;17.10;3.05;;;10.20;99.90;;;;;;5059462;28;20487;-69
2022/04/06 04:09:50;;;;;;;8.82;2.33;;;10.10;99.90;;;;;;5076153;28;20070;-66
2022/04/06 04:12:17;;;;;;;13.90;3.22;;;10.10;99.90;;;;;;5076875;28;20043;-68
2022/04/06 04:14:44;;;;;;;12.23;2.63;;;10.10;99.90;;;;;;5059406;28;20033;-68
2022/04/06 04:17:10;;;;;;;16.27;3.33;;;10.20;99.90;;;;;;5076283;28;20032;-72
2022/04/06 04:19:36;;;;;;;16.33;3.63;;;10.10;99.90;;;;;;5059716;28;20501;-68
2022/04/06 04:22:03;;;;;;;11.32;2.80;;;10.10;99.90;;;;;;5076036;28;20108;-66
2022/04/06 04:24:28;;;;;;;15.25;2.85;;;10.10;99.90;;;;;;5076744;28;20032;-68
2022/04/06 04:26:54;;;;;;;12.57;2.35;;;10.10;99.90;;;;;;5076688;28;20115;-67
2022/04/06 04:29:20;;;;;;;9.35;2.15;;;10.10;99.90;;;;;;5075858;28;20393;-68
2022/04/06 04:31:47;;;;;;;12.98;2.50;;;10.20;99.90;;;;;;5042456;28;20029;-72
2022/04/06 04:34:13;;;;;;;11.45;2.05;;;10.20;99.90;;;;;;5075885;28;20307;-69
2022/04/06 04:36:39;;;;;;;10.55;2.10;;;10.30;99.90;;;;;;5075875;28;20032;-67
2022/04/06 04:39:05;;;;;;;12.15;2.35;;;10.30;99.90;;;;;;5076319;28;20028;-68
2022/04/06 04:41:34;;;;;;;9.63;1.95;;;10.40;99.90;;;;;;5075775;28;20044;-68
2022/04/06 04:44:00;;;;;;;9.48;1.52;;;10.30;99.90;;;;;;5075741;28;20043;-67
2022/04/06 04:46:26;;;;;;;9.02;1.73;;;10.30;99.90;;;;;;5076584;28;20032;-67
2022/04/06 04:48:52;;;;;;;9.93;1.40;;;10.30;99.90;;;;;;5075873;28;20039;-63
2022/04/06 04:51:18;;;;;;;4.97;1.20;;;10.30;99.90;;;;;;5059030;28;20308;-68
2022/04/06 04:53:44;;;;;;;6.85;1.40;;;10.30;99.90;;;;;;5059042;28;20040;-67
2022/04/06 04:56:10;;;;;;;6.80;1.10;;;10.20;99.90;;;;;;5075761;28;20028;-70
2022/04/06 04:58:36;;;;;;;5.93;1.33;;;10.20;99.90;;;;;;5076553;28;20037;-68
2022/04/06 05:01:03;;;;;;;5.57;1.10;;;10.20;99.90;;;;;;5059093;28;20029;-66
2022/04/06 05:03:29;;;;;;;7.28;1.13;;;10.30;99.90;;;;;;5075657;28;20299;-67
2022/04/06 05:05:56;;;;;;;8.93;1.48;;;10.40;99.90;;;;;;5059147;28;20032;-61
2022/04/06 05:08:23;;;;;;;4.47;1.02;;;10.60;99.90;;;;;;5075674;28;20041;-65
2022/04/06 05:10:49;;;;;;;7.72;1.40;;;10.60;99.90;;;;;;5075812;28;20036;-70
2022/04/06 05:13:17;;;;;;;6.05;1.25;;;10.50;99.90;;;;;;5076098;28;20029;-63
2022/04/06 05:15:46;;;;;;;8.48;1.27;;;10.50;99.90;;;;;;5079207;28;20115;-68
2022/04/06 05:18:12;;;;;;;4.93;1.00;;;10.50;99.90;;;;;;5079292;28;20025;-60
2022/04/06 05:20:38;;;;;;;8.98;1.00;;;10.60;99.90;;;;;;5079185;28;20025;-64
2022/04/06 05:23:04;;;;;;;7.63;1.10;;;10.60;99.90;;;;;;5062475;28;20032;-68
2022/04/06 05:25:29;;;;;;;6.93;1.38;;;10.50;99.90;;;;;;5045883;28;20035;-67
2022/04/06 05:27:56;;;;;;;5.88;1.50;;;10.50;99.90;;;;;;5079728;28;20028;-64
2022/04/06 05:30:24;;;;;;;6.63;1.13;;;10.60;99.90;;;;;;5078830;28;20127;-62
2022/04/06 05:32:51;;;;;;;4.93;1.10;;;10.60;99.90;;;;;;5079392;28;20315;-69
2022/04/06 05:35:18;;;;;;;4.65;1.05;;;10.60;99.90;;;;;;5078763;28;20035;-62
2022/04/06 05:37:45;;;;;;;8.05;1.00;;;10.50;99.90;;;;;;5078716;28;20439;-65
2022/04/06 05:40:15;;;;;;;5.65;1.10;;;10.50;99.90;;;;;;5078499;28;20052;-64
2022/04/06 05:42:45;;;;;;;5.43;1.35;;;10.50;99.90;;;;;;5078873;28;20130;-69
2022/04/06 05:45:11;;;;;;;4.43;0.90;;;10.60;99.90;;;;;;5078681;28;20036;-68
2022/04/06 05:47:37;;;;;;;5.22;0.98;;;10.70;99.90;;;;;;5079431;28;20032;-64
2022/04/06 05:50:06;;;;;;;5.25;1.30;;;10.60;99.90;;;;;;5062175;28;20416;-68
2022/04/06 05:52:32;;;;;;;8.85;0.98;;;10.40;99.90;;;;;;5078466;28;20047;-66
2022/04/06 05:54:58;;;;;;;7.78;1.20;;;10.50;99.90;;;;;;5061706;28;20028;-62
2022/04/06 05:57:24;;;;;;;5.50;1.38;;;10.50;99.90;;;;;;5078670;28;20040;-69
2022/04/06 05:59:50;;;;;;;8.07;1.45;;;10.60;99.90;;;;;;5078375;28;20028;-68
2022/04/06 06:02:16;;;;;;;7.13;1.55;;;10.60;99.90;;;;;;5061855;28;20024;-67
2022/04/06 06:04:42;;;;;;;6.13;1.27;;;10.50;99.90;;;;;;5078551;28;20375;-68
2022/04/06 06:07:08;;;;;;;9.30;1.65;;;10.30;99.90;;;;;;5079047;28;20039;-71
2022/04/06 06:09:35;;;;;;;8.27;1.33;;;10.30;99.90;;;;;;5061740;28;20037;-68
2022/04/06 06:12:02;;;;;;;6.10;1.33;;;10.20;99.90;;;;;;5061914;28;20445;-68
2022/04/06 06:14:28;;;;;;;7.65;1.38;;;10.20;99.90;;;;;;5078148;28;20395;-66
2022/04/06 06:16:54;;;;;;;7.88;1.90;;;10.00;99.90;;;;;;5078182;28;20016;-68
2022/04/06 06:19:20;;;;;;;6.28;1.50;;;10.10;99.90;;;;;;5061528;28;20304;-67
2022/04/06 06:21:46;;;;;;;8.93;1.50;;;10.00;99.90;;;;;;5077940;28;20123;-67
2022/04/06 06:24:12;;;;;;;7.53;1.73;;;10.00;99.90;;;;;;5078659;28;20052;-66
2022/04/06 06:26:39;;;;;;;8.40;1.48;;;10.00;99.90;;;;;;5076830;28;20037;-68
2022/04/06 06:29:05;;;;;;;12.15;2.08;;;10.10;99.90;;;;;;5077933;28;20090;-70
2022/04/06 06:31:31;;;;;;;10.32;2.35;;;10.10;99.90;;;;;;5061140;28;20064;-67
2022/04/06 06:33:58;;;;;;;7.03;1.77;;;10.10;99.90;;;;;;5078588;28;20047;-66
2022/04/06 06:36:24;;;;;;;8.57;1.88;;;10.00;99.90;;;;;;5077761;28;20035;-68
2022/04/06 06:38:52;;;;;;;11.52;2.60;;;9.90;99.90;;;;;;5078581;28;20024;-67
2022/04/06 06:41:18;;;;;;;6.22;1.75;;;9.90;99.90;;;;;;5060852;28;20322;-68
2022/04/06 06:43:45;;;;;;;8.13;2.00;;;9.90;99.90;;;;;;5078415;28;20044;-72
2022/04/06 06:46:11;;;;;;;5.63;1.75;;;10.00;99.90;;;;;;5077619;28;20419;-67
2022/04/06 06:48:37;;;;;;;8.85;1.73;;;9.90;99.90;;;;;;5078393;28;20115;-67
2022/04/06 06:51:04;;;;;;;4.15;1.55;;;10.00;99.90;;;;;;5060897;28;20143;-67
2022/04/06 06:53:31;;;;;;;6.28;1.98;;;10.10;99.90;;;;;;5061180;28;20051;-68
2022/04/06 06:55:57;;;;;;;8.82;1.85;;;10.00;99.90;;;;;;5078085;28;20296;-68
2022/04/06 06:58:23;;;;;;;7.50;1.83;;;10.10;99.90;;;;;;5060671;28;20115;-68
2022/04/06 07:00:49;;;;;;;8.20;2.00;;;10.10;99.90;;;;;;5077235;28;20067;-67
2022/04/06 07:03:15;;;;;;;8.27;1.98;;;10.10;99.90;;;;;;5077320;28;20297;-67
2022/04/06 07:05:40;;;;;;;7.72;1.60;;;10.20;99.90;;;;;;5077867;28;20041;-66
2022/04/06 07:08:07;;;;;;;7.85;1.80;;;10.20;99.90;;;;;;5077976;28;20315;-68
2022/04/06 07:10:33;;;;;;;10.70;1.83;;;10.20;99.90;;;;;;5078148;28;20032;-67
2022/04/06 07:12:59;;;;;;;7.57;1.58;;;10.20;99.90;;;;;;5060593;28;20040;-68
2022/04/06 07:15:25;;;;;;;7.45;1.48;;;10.30;99.90;;;;;;5076942;28;20285;-66
2022/04/06 07:17:56;;;;;;;12.30;1.77;;;10.20;99.90;;;;;;5043853;28;20039;-66
2022/04/06 07:20:24;;;;;;;8.30;1.80;;;10.20;99.90;;;;;;5076667;28;20021;-66
2022/04/06 07:22:53;;;;;;;9.07;1.92;;;10.20;99.90;;;;;;5060081;28;20028;-65
2022/04/06 07:25:19;;;;;;;7.00;1.73;;;10.30;99.90;;;;;;5076835;28;20027;-68
2022/04/06 07:27:45;;;;;;;9.27;2.13;;;10.50;99.90;;;;;;5076665;28;20028;-70
2022/04/06 07:30:13;;;;;;;7.50;1.77;;;10.50;99.90;;;;;;5077477;28;20034;-71
2022/04/06 07:32:39;;;;;;;6.30;1.60;;;10.50;99.90;;;;;;5077317;28;20029;-67
2022/04/06 07:35:07;;;;;;;9.98;1.50;;;10.60;99.90;;;;;;5077375;28;20039;-68
2022/04/06 07:37:41;;;;;;;9.70;1.70;;;10.90;99.90;;;;;;5076525;28;20029;-69
2022/04/06 07:40:08;;;;;;;6.07;1.77;;;11.10;99.90;;;;;;5077207;28;20044;-69
2022/04/06 07:42:35;;;;;;;10.07;2.05;;;10.90;99.90;;;;;;5060296;28;20051;-74
2022/04/06 07:45:16;;;;;;;8.70;1.70;;;10.70;99.90;;;;;;5076499;28;20416;-69
2022/04/06 07:47:43;;;;;;;5.35;1.58;;;10.60;99.90;;;;;;5076466;28;20029;-70
2022/04/06 07:50:10;;;;;;;6.50;1.60;;;10.60;99.90;;;;;;5077107;28;20036;-71
2022/04/06 07:52:37;;;;;;;8.00;1.75;;;10.60;99.90;;;;;;5059691;28;20101;-72
2022/04/06 07:55:07;;;;;;;9.00;1.98;;;10.70;99.90;;;;;;5076057;28;20017;-64
2022/04/06 07:57:34;;;;;;;7.50;1.75;;;10.70;99.90;;;;;;5076210;28;20090;-72
2022/04/06 08:00:05;;;;;;;8.40;1.60;;;10.50;99.90;;;;;;5059629;28;20455;-70
2022/04/06 08:02:32;;;;;;;7.50;1.52;;;10.40;99.90;;;;;;5076222;28;20024;-66
2022/04/06 08:04:57;;;;;;;7.70;2.08;;;10.40;99.90;;;;;;5077346;28;20032;-68
2022/04/06 08:07:23;;;;;;;9.07;1.80;;;10.40;99.90;;;;;;5076172;28;20025;-68
2022/04/06 08:09:49;;;;;;;7.95;1.95;;;10.60;99.90;;;;;;5059567;28;20079;-68
2022/04/06 08:12:15;;;;;;;7.80;1.75;;;10.50;99.90;;;;;;5076164;28;20056;-68
2022/04/06 08:14:41;;;;;;;5.55;1.60;;;10.50;99.90;;;;;;5060149;28;20039;-69
2022/04/06 08:17:07;;;;;;;6.70;1.60;;;10.60;99.90;;;;;;5075952;28;20024;-72
2022/04/06 08:19:33;;;;;;;7.57;1.42;;;10.60;99.90;;;;;;5059493;28;20029;-69
2022/04/06 08:21:58;;;;;;;9.63;1.80;;;10.50;99.90;;;;;;5059419;28;20078;-70
2022/04/06 08:24:25;;;;;;;5.93;1.75;;;10.60;99.90;;;;;;5075946;28;20400;-68
2022/04/06 08:26:51;;;;;;;7.55;1.50;;;10.50;99.90;;;;;;5076014;28;20044;-69
2022/04/06 08:29:17;;;;;;;8.73;2.55;;;10.40;99.90;;;;;;5059400;28;20355;-70
2022/04/06 08:31:43;;;;;;;3.90;1.48;;;10.60;99.90;;;;;;5076096;28;20028;-69
2022/04/06 08:34:09;;;;;;;7.60;1.60;;;10.60;99.90;;;;;;5075968;28;20032;-69
2022/04/06 08:36:35;;;;;;;8.60;1.52;;;10.60;99.90;;;;;;5075836;28;20071;-69
2022/04/06 08:39:02;;;;;;;4.25;1.55;;;10.60;99.90;;;;;;5076461;28;20043;-68
2022/04/06 08:41:30;;;;;;;6.88;1.45;;;10.60;99.90;;;;;;5076762;28;20031;-71
2022/04/06 08:43:56;;;;;;;9.00;1.75;;;10.70;99.90;;;;;;5043091;28;20049;-68
2022/04/06 08:46:22;;;;;;;6.93;1.45;;;10.80;99.90;;;;;;5076729;28;20092;-69
2022/04/06 08:48:49;;;;;;;7.03;1.42;;;10.80;99.90;;;;;;5077582;28;20075;-69
2022/04/06 08:51:17;;;;;;;7.72;1.55;;;10.70;99.90;;;;;;5080517;28;20053;-68
2022/04/06 08:53:44;;;;;;;8.10;1.63;;;10.60;99.90;;;;;;5080015;28;20042;-69
2022/04/06 08:56:13;;;;;;;4.35;1.42;;;10.60;99.90;;;;;;5080510;28;20039;-71
2022/04/06 08:58:42;;;;;;;7.35;1.67;;;10.70;99.90;;;;;;5063667;28;20024;-69
2022/04/06 09:01:09;;;;;;;6.50;1.38;;;10.90;99.90;;;;;;5080980;28;20029;-70
2022/04/06 09:03:38;;;;;;;5.13;1.27;;;11.10;99.90;;;;;;5079607;28;20303;-70
2022/04/06 09:06:07;;;;;;;5.25;1.00;;;11.10;99.90;;;;;;5047352;28;20033;-70
2022/04/06 09:08:39;;;;;;;6.35;1.52;;;11.10;99.90;;;;;;5063148;28;20056;-70
2022/04/06 09:11:17;;;;;;;4.63;1.48;;;10.90;99.90;;;;;;5079665;28;20040;-69
2022/04/06 09:13:46;;;;;;;6.80;1.50;;;11.00;99.90;;;;;;5079486;28;20033;-70
2022/04/06 09:16:14;;;;;;;7.45;1.42;;;11.10;99.90;;;;;;5062535;28;20020;-70
2022/04/06 09:18:43;;;;;;;11.23;1.50;;;11.00;99.90;;;;;;5079222;28;20035;-64
2022/04/06 09:21:10;;;;;;;5.55;1.48;;;10.90;99.90;;;;;;5079121;28;20032;-65
2022/04/06 09:23:36;;;;;;;4.88;1.45;;;11.10;99.90;;;;;;5079130;28;20103;-64
2022/04/06 09:26:08;;;;;;;6.18;1.50;;;11.20;99.90;;;;;;5079149;28;20125;-66
2022/04/06 09:28:41;;;;;;;5.20;1.45;;;11.30;99.90;;;;;;5079936;28;20047;-65
2022/04/06 09:31:08;;;;;;;6.20;1.48;;;11.40;99.90;;;;;;5079731;28;20133;-70
2022/04/06 09:33:39;;;;;;;6.03;1.65;;;11.40;99.90;;;;;;5062299;28;20032;-70
2022/04/06 09:36:18;;;;;;;5.35;1.30;;;11.50;99.90;;;;;;5079125;28;20037;-61
2022/04/06 09:38:48;;;;;;;8.55;1.73;;;11.40;99.90;;;;;;5080445;28;20024;-71
2022/04/06 09:41:15;;;;;;;2.85;1.27;;;11.30;99.90;;;;;;5080096;28;20044;-65
2022/04/06 09:43:44;;;;;;;4.53;1.40;;;11.40;99.90;;;;;;5062409;28;20032;-68
2022/04/06 09:49:10;;;;;;;3.95;1.40;;;11.60;99.90;;;;;;5079869;28;20037;-70
2022/04/06 09:51:44;;;;;;;9.13;1.50;;;11.50;99.90;;;;;;5062369;28;20348;-68
2022/04/06 09:54:14;;;;;;;5.28;1.52;;;11.60;99.90;;;;;;5061893;28;20127;-71
2022/04/06 09:56:43;;;;;;;2.53;1.20;;;11.60;99.90;;;;;;5078679;28;20028;-64
2022/04/06 09:59:11;;;;;;;4.55;1.27;;;11.50;99.90;;;;;;5062042;28;20040;-70
2022/04/06 10:01:52;;;;;;;6.68;1.55;;;11.60;99.90;;;;;;5062518;28;20037;-69
2022/04/06 10:04:23;;;;;;;3.47;1.25;;;11.60;99.90;;;;;;5079153;28;20112;-69
2022/04/06 10:06:49;;;;;;;5.03;1.20;;;11.60;99.90;;;;;;5078314;28;20025;-65
2022/04/06 10:09:15;;;;;;;6.03;1.40;;;11.60;99.90;;;;;;5079365;28;20392;-70
2022/04/06 10:11:42;;;;;;;5.70;1.40;;;11.60;99.90;;;;;;5078681;28;20067;-72
2022/04/06 10:14:10;;;;;;;5.80;1.58;;;11.50;99.90;;;;;;5078870;28;20024;-72
2022/04/06 10:16:38;;;;;;;4.55;1.52;;;11.30;99.90;;;;;;5079288;28;20024;-71
2022/04/06 10:19:07;;;;;;;3.58;1.45;;;11.40;99.90;;;;;;5061907;28;20328;-72
2022/04/06 10:21:41;;;;;;;5.47;1.90;;;11.40;99.90;;;;;;5078420;28;20277;-68
2022/04/06 10:24:33;;;;;;;5.63;1.65;;;11.60;99.90;;;;;;5078683;28;20058;-69
2022/04/06 10:27:15;;;;;;;4.82;1.67;;;11.80;99.90;;;;;;5079559;28;20035;-71
2022/04/06 10:30:16;;;;;;;6.25;1.60;;;11.80;99.90;;;;;;5062528;28;20400;-68
2022/04/06 10:32:49;;;;;;;5.50;1.25;;;12.00;99.90;;;;;;5078931;28;20036;-71
2022/04/06 10:35:18;;;;;;;2.70;1.30;;;11.90;99.90;;;;;;5079418;28;20273;-67
2022/04/06 10:37:56;;;;;;;9.02;2.00;;;11.80;99.90;;;;;;5079234;28;20095;-66
2022/04/06 10:40:23;;;;;;;5.95;1.60;;;11.70;99.90;;;;;;5062517;28;20048;-70
2022/04/06 10:42:52;;;;;;;6.32;1.40;;;11.80;99.90;;;;;;5078353;28;20071;-69
2022/04/06 10:45:29;;;;;;;3.05;1.30;;;11.90;99.90;;;;;;5080111;28;20396;-69
2022/04/06 10:48:15;;;;;;;4.85;1.45;;;12.00;99.90;;;;;;5079863;28;20032;-70
2022/04/06 10:50:43;;;;;;;4.55;1.40;;;11.90;99.90;;;;;;5062683;28;20032;-73
2022/04/06 10:53:22;;;;;;;4.00;1.52;;;11.60;99.90;;;;;;5062986;28;20024;-72
2022/04/06 10:56:16;;;;;;;5.68;1.42;;;11.70;99.90;;;;;;5078242;28;20042;-73
2022/04/06 10:59:09;;;;;;;5.00;1.42;;;11.70;99.90;;;;;;5078050;28;20029;-71
2022/04/06 11:01:38;;;;;;;5.60;2.15;;;11.50;99.90;;;;;;5078846;28;20051;-75
2022/04/06 11:04:05;;;;;;;8.70;1.95;;;11.50;99.90;;;;;;5078313;28;20119;-69
2022/04/06 11:06:52;;;;;;;4.63;1.83;;;11.50;99.90;;;;;;5078534;28;20038;-72
2022/04/06 11:12:19;;;;;;;6.82;2.20;;;11.50;99.90;;;;;;5077472;28;20036;-71
2022/04/06 11:14:50;;;;;;;4.03;1.80;;;11.40;99.90;;;;;;5060319;28;20016;-71
2022/04/06 11:17:38;;;;;;;6.70;2.03;;;11.60;99.90;;;;;;5077878;28;20037;-66
2022/04/06 11:20:15;;;;;;;5.18;2.33;;;11.50;99.90;;;;;;5077672;28;20119;-68
2022/04/06 11:22:53;;;;;;;3.78;2.00;;;11.50;99.90;;;;;;5060349;28;20067;-72
2022/04/06 11:25:22;;;;;;;5.22;1.98;;;11.50;99.90;;;;;;5077144;28;20081;-70
2022/04/06 11:27:49;;;;;;;5.30;2.10;;;11.40;99.90;;;;;;5060560;28;20024;-70
2022/04/06 11:30:17;;;;;;;5.45;2.65;;;11.40;99.90;;;;;;5061659;28;20302;-69
2022/04/06 11:32:57;;;;;;;4.07;2.03;;;11.30;99.90;;;;;;5078377;28;20051;-70
2022/04/06 11:35:28;;;;;;;3.55;2.00;;;11.40;99.90;;;;;;5077004;28;20380;-70
2022/04/06 11:37:55;;;;;;;5.05;2.33;;;11.50;99.90;;;;;;5078862;28;20033;-71
2022/04/06 11:40:22;;;;;;;7.05;2.60;;;11.40;99.90;;;;;;5078029;28;20408;-70
2022/04/06 11:42:50;;;;;;;8.73;2.35;;;11.20;99.90;;;;;;5077499;28;20052;-68
2022/04/06 11:45:24;;;;;;;5.97;2.60;;;11.20;99.90;;;;;;5076573;28;20098;-72
2022/04/06 11:47:58;;;;;;;4.82;2.30;;;11.20;99.90;;;;;;5077059;28;20292;-70
2022/04/06 11:50:33;;;;;;;8.52;2.55;;;11.20;99.90;;;;;;5076467;28;20357;-71
2022/04/06 11:53:07;;;;;;;4.07;2.33;;;11.30;99.90;;;;;;5077312;28;20047;-63
2022/04/06 11:56:01;;;;;;;6.38;2.50;;;11.40;99.90;;;;;;5077167;28;20107;-73
2022/04/06 11:58:36;;;;;;;5.45;2.15;;;11.30;99.90;;;;;;5077291;28;20098;-71
2022/04/06 12:01:16;;;;;;;3.28;2.10;;;11.50;99.90;;;;;;5077216;28;20041;-72
2022/04/06 12:03:44;;;;;;;7.65;2.35;;;11.70;99.90;;;;;;5077452;28;20109;-68
2022/04/06 12:06:14;;;;;;;6.05;2.20;;;11.70;99.90;;;;;;5077062;28;20154;-70
2022/04/06 12:08:41;;;;;;;6.60;2.28;;;11.60;99.90;;;;;;5076229;28;20021;-72
2022/04/06 12:11:07;;;;;;;4.85;1.70;;;11.50;99.90;;;;;;5076690;28;20028;-72
2022/04/06 12:13:36;;;;;;;5.15;2.00;;;11.50;99.90;;;;;;5076162;28;20063;-70
2022/04/06 12:16:03;;;;;;;4.57;1.80;;;11.50;99.90;;;;;;5076151;28;20100;-72
2022/04/06 12:18:31;;;;;;;4.25;1.70;;;11.50;99.90;;;;;;5077185;28;20059;-65
2022/04/06 12:20:57;;;;;;;4.97;1.90;;;11.40;99.90;;;;;;5059425;28;20035;-72
2022/04/06 12:23:25;;;;;;;3.20;2.20;;;11.40;99.90;;;;;;5075897;28;20051;-70
2022/04/06 12:25:52;;;;;;;5.18;2.15;;;11.40;99.90;;;;;;5076661;28;20025;-66
2022/04/06 12:28:21;;;;;;;5.25;2.10;;;11.50;99.90;;;;;;5076189;28;20040;-69
2022/04/06 12:31:07;;;;;;;2.63;2.42;;;11.40;99.90;;;;;;5059669;28;20035;-61
2022/04/06 12:33:39;;;;;;;5.15;2.28;;;11.40;99.90;;;;;;5075867;28;20036;-71
2022/04/06 12:36:13;;;;;;;5.30;2.42;;;11.30;99.90;;;;;;5059139;28;20032;-72
2022/04/06 12:38:42;;;;;;;4.53;2.25;;;11.30;99.90;;;;;;5076719;28;20032;-72
2022/04/06 12:41:12;;;;;;;3.33;2.20;;;11.20;99.90;;;;;;5076566;28;20044;-72
2022/04/06 12:43:45;;;;;;;3.35;2.10;;;11.30;99.90;;;;;;5076208;28;20387;-70
2022/04/06 12:46:12;;;;;;;3.72;2.10;;;11.30;99.90;;;;;;5076710;28;20075;-68
2022/04/06 12:48:38;;;;;;;4.47;1.90;;;11.30;99.90;;;;;;5075969;28;20071;-69
2022/04/06 12:51:18;;;;;;;5.40;2.13;;;11.30;99.90;;;;;;5076625;28;20041;-73
2022/04/06 12:53:55;;;;;;;4.18;2.20;;;11.30;99.90;;;;;;5076580;28;20043;-70
2022/04/06 12:56:23;;;;;;;5.25;2.60;;;11.40;99.90;;;;;;5078144;28;20117;-71
2022/04/06 12:59:10;;;;;;;4.60;2.20;;;11.40;99.90;;;;;;5076240;28;20020;-63
2022/04/06 13:01:50;;;;;;;4.47;2.70;;;11.30;99.90;;;;;;5060261;28;20120;-73